TAF Text Data
IDs:
Format:
Raw Decoded Include METAR

Data at: 0854 UTC 27 Feb 2020

KANB 270520Z 2706/2806 31009KT P6SM SCT035 OVC050
  TEMPO 2708/2712 BKN025
  FM271500 29010KT P6SM SCT250
  FM280000 25003KT P6SM SKC